Time;durP1;ratioP1;P1;durP2;ratioP2;P2;SDS_P1;SDS_P2;PMS_P1;PMS_P2;Temp;Humidity;BMP_temperature;BMP_pressure;BME280_temperature;BME280_humidity;BME280_pressure;Samples;Min_cycle;Max_cycle;Signal;HPM_P1;HPM_P2
2023/12/06 00:01:44;;;;;;;61.33;32.60;;;5.40;47.70;;;;;;5072861;28;20123;-67
2023/12/06 00:04:10;;;;;;;59.40;32.08;;;;;;;;;;5072316;28;20067;-67
2023/12/06 00:06:36;;;;;;;63.85;32.17;;;;;;;;;;5072589;28;20036;-67
2023/12/06 00:09:02;;;;;;;54.28;29.73;;;;;;;;;;5072646;28;20499;-67
2023/12/06 00:11:28;;;;;;;62.70;33.75;;;;;;;;;;5072088;28;20044;-67
2023/12/06 00:13:54;;;;;;;63.63;31.35;;;;;;;;;;5072610;28;20097;-66
2023/12/06 00:16:20;;;;;;;59.58;31.08;;;;;;;;;;5072424;28;20080;-69
2023/12/06 00:18:48;;;;;;;57.55;30.55;;;;;;;;;;5071729;28;20055;-69
2023/12/06 00:21:14;;;;;;;55.72;29.63;;;;;;;;;;5072936;28;20047;-69
2023/12/06 00:23:39;;;;;;;59.70;30.45;;;5.50;48.90;;;;;;5072385;28;20134;-69
2023/12/06 00:26:05;;;;;;;60.80;30.70;;;;;;;;;;5055209;28;20048;-69
2023/12/06 00:28:31;;;;;;;57.95;30.95;;;5.60;49.40;;;;;;5072069;28;20070;-69
2023/12/06 00:30:57;;;;;;;57.78;31.52;;;;;;;;;;5072686;28;20032;-69
2023/12/06 00:33:23;;;;;;;58.85;29.75;;;;;;;;;;5055815;28;20111;-69
2023/12/06 00:35:49;;;;;;;58.60;30.92;;;;;;;;;;5071690;28;20044;-69
2023/12/06 00:38:15;;;;;;;53.80;29.73;;;;;;;;;;5072111;28;20482;-68
2023/12/06 00:40:41;;;;;;;60.35;31.70;;;;;;;;;;5071575;28;20040;-69
2023/12/06 00:43:07;;;;;;;54.08;30.92;;;;;;;;;;5055055;28;20044;-68
2023/12/06 00:45:33;;;;;;;56.83;30.65;;;;;;;;;;5072292;28;20097;-69
2023/12/06 00:47:59;;;;;;;53.72;30.73;;;;;;;;;;5054876;28;20110;-69
2023/12/06 00:50:25;;;;;;;52.42;28.40;;;;;;;;;;5072049;28;20101;-69
2023/12/06 00:52:51;;;;;;;59.67;31.35;;;;;;;;;;5071095;28;20033;-68
2023/12/06 00:55:17;;;;;;;58.80;31.35;;;;;;;;;;5071350;28;20043;-69
2023/12/06 00:57:43;;;;;;;56.88;31.67;;;;;;;;;;5071939;28;20036;-69
2023/12/06 01:00:10;;;;;;;59.20;31.02;;;;;;;;;;5071171;28;20037;-69
2023/12/06 01:02:36;;;;;;;54.15;30.67;;;;;;;;;;5071546;28;20032;-69
2023/12/06 01:05:02;;;;;;;52.33;29.27;;;;;;;;;;5071733;28;20047;-69
2023/12/06 01:07:28;;;;;;;50.50;30.10;;;;;;;;;;5070677;28;20044;-69
2023/12/06 01:09:54;;;;;;;52.80;28.85;;;;;;;;;;5069656;28;20122;-69
2023/12/06 01:12:20;;;;;;;52.47;29.42;;;;;;;;;;5071876;28;20297;-69
2023/12/06 01:14:45;;;;;;;52.05;29.85;;;5.60;51.40;;;;;;5071348;28;20045;-69
2023/12/06 01:17:11;;;;;;;48.83;29.33;;;;;;;;;;5070579;28;20036;-69
2023/12/06 01:19:37;;;;;;;49.10;27.25;;;;;;;;;;5070945;28;20117;-69
2023/12/06 01:22:03;;;;;;;44.65;26.67;;;5.80;50.30;;;;;;5071485;28;20182;-68
2023/12/06 01:24:29;;;;;;;49.50;27.17;;;;;;;;;;5054838;28;20037;-69
2023/12/06 01:26:55;;;;;;;44.67;26.38;;;;;;;;;;5071521;28;20250;-69
2023/12/06 01:29:21;;;;;;;49.33;25.58;;;;;;;;;;5071007;28;20499;-69
2023/12/06 01:31:47;;;;;;;46.38;26.15;;;;;;;;;;5054997;28;20044;-69
2023/12/06 01:34:12;;;;;;;48.55;27.95;;;5.90;51.60;;;;;;5071106;28;20460;-69
2023/12/06 01:36:38;;;;;;;47.40;25.80;;;5.80;51.80;;;;;;5071537;28;20079;-69
2023/12/06 01:39:04;;;;;;;41.40;25.88;;;;;;;;;;5054364;28;20039;-69
2023/12/06 01:41:30;;;;;;;39.58;24.50;;;5.70;49.30;;;;;;5071235;28;20093;-69
2023/12/06 01:43:56;;;;;;;38.63;23.98;;;;;;;;;;5071125;28;20044;-68
2023/12/06 01:46:22;;;;;;;44.42;26.08;;;;;;;;;;5071074;28;20131;-68
2023/12/06 01:48:48;;;;;;;46.17;24.75;;;5.80;48.60;;;;;;5070778;28;20105;-69
2023/12/06 01:51:17;;;;;;;42.75;23.95;;;5.60;48.10;;;;;;5071037;28;20047;-69
2023/12/06 01:53:43;;;;;;;38.83;23.70;;;;;;;;;;5070862;28;20028;-69
2023/12/06 01:56:10;;;;;;;46.53;26.70;;;5.70;47.20;;;;;;5070788;28;20040;-69
2023/12/06 01:58:37;;;;;;;45.58;27.08;;;;;;;;;;5070777;28;20102;-69
2023/12/06 02:01:04;;;;;;;47.22;27.30;;;5.70;48.60;;;;;;5070814;28;20033;-69
2023/12/06 02:03:31;;;;;;;42.60;25.40;;;;;;;;;;5070886;28;20461;-68
2023/12/06 02:05:57;;;;;;;42.10;25.25;;;;;;;;;;5054060;28;20051;-69
2023/12/06 02:08:23;;;;;;;49.15;26.20;;;;;;;;;;5070440;28;20490;-67
2023/12/06 02:10:48;;;;;;;42.65;26.08;;;;;;;;;;5070629;28;20052;-69
2023/12/06 02:13:14;;;;;;;38.63;23.55;;;5.80;52.50;;;;;;5070293;28;20041;-69
2023/12/06 02:15:40;;;;;;;42.17;25.13;;;5.80;52.00;;;;;;5070581;28;20050;-69
2023/12/06 02:18:06;;;;;;;35.30;22.77;;;;;;;;;;5070523;28;20036;-69
2023/12/06 02:20:32;;;;;;;35.92;23.00;;;6.10;49.90;;;;;;5070359;28;20040;-67
2023/12/06 02:22:58;;;;;;;39.33;23.83;;;;;;;;;;5070339;28;20036;-69
2023/12/06 02:25:24;;;;;;;41.38;24.40;;;;;;;;;;5070333;28;20040;-70
2023/12/06 02:27:50;;;;;;;35.63;21.40;;;5.90;49.60;;;;;;5053662;28;20084;-69
2023/12/06 02:30:16;;;;;;;38.83;23.30;;;;;;;;;;5070143;28;20473;-69
2023/12/06 02:32:42;;;;;;;35.65;22.90;;;;;;;;;;5053765;28;20039;-69
2023/12/06 02:35:33;;;;;;;34.55;22.63;;;5.90;51.10;;;;;;5070171;28;20036;-69
2023/12/06 02:38:00;;;;;;;38.90;24.15;;;;;;;;;;5070430;28;20044;-69
2023/12/06 02:40:29;;;;;;;34.60;21.65;;;5.90;50.80;;;;;;5070090;28;20047;-69
2023/12/06 02:42:55;;;;;;;32.88;21.25;;;;;;;;;;5070198;28;20028;-68
2023/12/06 02:45:21;;;;;;;34.67;21.77;;;;;;;;;;5053679;28;20080;-69
2023/12/06 02:47:47;;;;;;;36.17;22.23;;;;;;;;;;5070743;28;20446;-69
2023/12/06 02:50:13;;;;;;;35.17;21.95;;;;;;;;;;5070496;28;20040;-69
2023/12/06 02:52:39;;;;;;;35.33;21.63;;;;;;;;;;5070194;28;20110;-69
2023/12/06 02:55:05;;;;;;;38.45;23.02;;;;;;;;;;5070006;28;20040;-69
2023/12/06 02:57:31;;;;;;;32.75;21.38;;;;;;;;;;5070140;28;20066;-69
2023/12/06 02:59:57;;;;;;;33.17;22.25;;;;;;;;;;5053215;28;20568;-69
2023/12/06 03:02:23;;;;;;;32.50;21.90;;;6.00;57.30;;;;;;5070356;28;20040;-69
2023/12/06 03:04:48;;;;;;;37.90;23.15;;;6.20;57.10;;;;;;5070248;28;20036;-69
2023/12/06 03:07:14;;;;;;;29.67;19.95;;;;;;;;;;5069821;28;20048;-69
2023/12/06 03:09:40;;;;;;;31.15;20.20;;;;;;;;;;5069788;28;20572;-69
2023/12/06 03:12:07;;;;;;;32.97;21.65;;;;;;;;;;5069939;28;20048;-70
2023/12/06 03:14:33;;;;;;;33.05;21.52;;;;;;;;;;5067510;23;20044;-73
2023/12/06 03:16:59;;;;;;;36.17;21.45;;;;;;;;;;5073141;28;20059;-72
2023/12/06 03:19:25;;;;;;;31.48;22.17;;;5.90;56.80;;;;;;5057033;28;20036;-73
2023/12/06 03:21:51;;;;;;;45.25;22.50;;;;;;;;;;5073666;28;20055;-73
2023/12/06 03:24:17;;;;;;;33.08;21.20;;;6.00;56.90;;;;;;5073918;28;20044;-73
2023/12/06 03:26:43;;;;;;;37.20;21.83;;;;;;;;;;5073813;28;20151;-73
2023/12/06 03:29:09;;;;;;;33.67;21.20;;;;;;;;;;5057098;28;20044;-74
2023/12/06 03:31:35;;;;;;;38.85;23.25;;;;;;;;;;5073908;28;20055;-73
2023/12/06 03:34:01;;;;;;;40.22;23.15;;;;;;;;;;5056812;28;20480;-73
2023/12/06 03:36:27;;;;;;;37.50;22.35;;;;;;;;;;5073473;28;20041;-73
2023/12/06 03:38:52;;;;;;;35.63;23.42;;;6.00;58.10;;;;;;5073192;28;20040;-74
2023/12/06 03:41:19;;;;;;;38.00;23.38;;;5.90;59.10;;;;;;5073923;28;20046;-73
2023/12/06 03:43:47;;;;;;;32.92;20.67;;;;;;;;;;5073342;28;20040;-73
2023/12/06 03:46:13;;;;;;;37.85;22.45;;;;;;;;;;5073404;28;20110;-73
2023/12/06 03:48:39;;;;;;;33.17;21.40;;;;;;;;;;5073366;28;20074;-74
2023/12/06 03:51:05;;;;;;;32.13;20.80;;;6.00;61.00;;;;;;5073337;28;20044;-74
2023/12/06 03:53:30;;;;;;;31.60;20.25;;;6.20;61.00;;;;;;5056482;28;20093;-74
2023/12/06 03:55:56;;;;;;;35.33;21.65;;;;;;;;;;5073235;28;20496;-75
2023/12/06 03:58:22;;;;;;;29.55;19.85;;;;;;;;;;5056498;28;20093;-75
2023/12/06 04:00:48;;;;;;;34.35;20.38;;;;;;;;;;5073403;28;20045;-74
2023/12/06 04:03:14;;;;;;;32.22;21.42;;;;;;;;;;5072989;28;20423;-74
2023/12/06 04:05:42;;;;;;;33.72;21.05;;;6.30;59.30;;;;;;5073040;28;20043;-75
2023/12/06 04:08:08;;;;;;;33.75;20.80;;;6.10;61.70;;;;;;5073003;28;20115;-74
2023/12/06 04:10:33;;;;;;;33.97;21.13;;;6.20;61.60;;;;;;5074098;28;20040;-74
2023/12/06 04:12:59;;;;;;;32.30;20.45;;;;;;;;;;5072850;28;20041;-73
2023/12/06 04:15:25;;;;;;;34.60;20.58;;;;;;;;;;5072660;28;20051;-74
2023/12/06 04:17:51;;;;;;;32.65;20.40;;;;;;;;;;5073172;28;20123;-74
2023/12/06 04:20:17;;;;;;;32.95;20.92;;;;;;;;;;5072484;28;20044;-72
2023/12/06 04:22:43;;;;;;;34.97;20.45;;;;;;;;;;5056077;28;20043;-75
2023/12/06 04:25:09;;;;;;;29.45;18.88;;;;;;;;;;5072499;28;20045;-74
2023/12/06 04:27:35;;;;;;;34.55;22.25;;;;;;;;;;5071643;28;20085;-74
2023/12/06 04:30:01;;;;;;;40.45;21.25;;;;;;;;;;5072460;28;20043;-74
2023/12/06 04:32:27;;;;;;;28.98;19.10;;;;;;;;;;5072361;28;20492;-74
2023/12/06 04:34:54;;;;;;;32.42;20.95;;;;;;;;;;5072230;28;20127;-74
2023/12/06 04:37:20;;;;;;;33.17;19.90;;;;;;;;;;5072473;28;20041;-74
2023/12/06 04:39:46;;;;;;;34.03;21.98;;;;;;;;;;5072207;28;20044;-74
2023/12/06 04:42:12;;;;;;;33.85;21.20;;;;;;;;;;5055651;28;20036;-75
2023/12/06 04:44:38;;;;;;;37.53;21.60;;;;;;;;;;5072484;28;20041;-74
2023/12/06 04:47:04;;;;;;;33.00;21.40;;;;;;;;;;5055550;28;20072;-74
2023/12/06 04:49:30;;;;;;;37.67;21.20;;;;;;;;;;5071958;28;20500;-74
2023/12/06 04:51:56;;;;;;;36.17;20.40;;;;;;;;;;5072174;28;20044;-74
2023/12/06 04:54:25;;;;;;;32.60;19.65;;;;;;;;;;5071913;28;20051;-74
2023/12/06 04:56:51;;;;;;;29.13;19.33;;;6.40;63.50;;;;;;5072112;28;20041;-74
2023/12/06 04:59:17;;;;;;;31.08;19.20;;;;;;;;;;5072066;28;20095;-74
2023/12/06 05:01:43;;;;;;;29.30;20.17;;;;;;;;;;5071834;28;20047;-74
2023/12/06 05:04:09;;;;;;;29.92;18.33;;;6.30;63.00;;;;;;5071701;28;20047;-73
2023/12/06 05:06:35;;;;;;;25.17;17.25;;;;;;;;;;5071954;28;20047;-73
2023/12/06 05:09:01;;;;;;;34.58;19.48;;;;;;;;;;5071797;28;20411;-73
2023/12/06 05:11:27;;;;;;;30.58;18.67;;;;;;;;;;5055153;28;20040;-72
2023/12/06 05:13:53;;;;;;;28.15;18.80;;;;;;;;;;5071458;28;20037;-72
2023/12/06 05:16:19;;;;;;;30.30;20.45;;;;;;;;;;5054953;28;20094;-72
2023/12/06 05:18:45;;;;;;;33.20;20.23;;;6.60;66.60;;;;;;5054689;28;20097;-72
2023/12/06 05:21:11;;;;;;;27.92;18.60;;;;;;;;;;5071627;28;20487;-72
2023/12/06 05:23:36;;;;;;;34.78;18.73;;;6.60;66.10;;;;;;5054836;28;20045;-72
2023/12/06 05:26:03;;;;;;;31.00;19.02;;;;;;;;;;5071656;28;20036;-72
2023/12/06 05:28:29;;;;;;;31.48;19.67;;;;;;;;;;5071183;28;20044;-72
2023/12/06 05:30:54;;;;;;;24.30;17.08;;;6.40;63.20;;;;;;5071803;28;20139;-72
2023/12/06 05:33:20;;;;;;;24.45;17.80;;;;;;;;;;5071002;28;20488;-72
2023/12/06 05:35:46;;;;;;;26.42;17.58;;;;;;;;;;5071390;28;20123;-71
2023/12/06 05:38:12;;;;;;;24.10;17.90;;;;;;;;;;5071250;28;20052;-70
2023/12/06 05:40:38;;;;;;;23.73;16.75;;;6.70;65.60;;;;;;5070958;28;20041;-72
2023/12/06 05:43:03;;;;;;;30.75;19.08;;;6.60;64.90;;;;;;5071073;28;20042;-70
2023/12/06 05:45:29;;;;;;;25.23;18.33;;;6.50;61.00;;;;;;5070729;28;20029;-72
2023/12/06 05:47:55;;;;;;;25.70;17.90;;;;;;;;;;5071184;28;20052;-73
2023/12/06 05:50:21;;;;;;;28.65;17.80;;;;;;;;;;5071011;28;20491;-72
2023/12/06 05:52:47;;;;;;;29.95;18.63;;;;;;;;;;5071013;28;20059;-72
2023/12/06 05:55:13;;;;;;;26.52;17.95;;;;;;;;;;5070709;28;20492;-71
2023/12/06 05:57:39;;;;;;;28.67;17.98;;;;;;;;;;5070859;28;20044;-69
2023/12/06 06:00:09;;;;;;;25.13;17.98;;;;;;;;;;5053913;28;20041;-72
2023/12/06 06:02:35;;;;;;;29.48;18.73;;;6.40;62.60;;;;;;5070677;28;20550;-72
2023/12/06 06:05:01;;;;;;;30.80;17.88;;;;;;;;;;5071033;28;20037;-72
2023/12/06 06:07:27;;;;;;;21.90;16.48;;;;;;;;;;5070665;28;20068;-72
2023/12/06 06:09:53;;;;;;;27.40;16.15;;;6.80;61.30;;;;;;5053817;28;20466;-72
2023/12/06 06:12:19;;;;;;;29.73;16.67;;;;;;;;;;5070908;28;20040;-72
2023/12/06 06:14:44;;;;;;;24.65;16.23;;;;;;;;;;5070435;28;20510;-71
2023/12/06 06:17:10;;;;;;;27.13;16.63;;;;;;;;;;5070524;28;20083;-73
2023/12/06 06:19:36;;;;;;;29.27;18.00;;;;;;;;;;5070289;28;20450;-72
2023/12/06 06:22:02;;;;;;;27.00;17.67;;;;;;;;;;5053811;28;20040;-72
2023/12/06 06:24:28;;;;;;;23.55;15.70;;;;;;;;;;5070543;28;20048;-72
2023/12/06 06:26:54;;;;;;;25.80;16.80;;;6.90;60.20;;;;;;5070428;28;20491;-72
2023/12/06 06:29:20;;;;;;;28.48;17.23;;;;;;;;;;5070164;28;20036;-72
2023/12/06 06:31:45;;;;;;;26.85;17.63;;;6.80;59.40;;;;;;5070113;28;20037;-73
2023/12/06 06:34:11;;;;;;;26.65;18.15;;;;;;;;;;5070186;28;20496;-73
2023/12/06 06:36:37;;;;;;;25.50;16.83;;;;;;;;;;5053866;28;20135;-73
2023/12/06 06:39:03;;;;;;;27.88;17.17;;;;;;;;;;5070064;28;20040;-72
2023/12/06 06:41:30;;;;;;;24.08;16.70;;;;;;;;;;5070291;28;20040;-72
2023/12/06 06:43:56;;;;;;;25.10;17.25;;;;;;;;;;5070050;28;20044;-72
2023/12/06 06:46:22;;;;;;;27.65;16.73;;;;;;;;;;5070134;28;20522;-71
2023/12/06 06:48:48;;;;;;;26.92;17.30;;;;;;;;;;5069842;28;20044;-73
2023/12/06 06:51:14;;;;;;;29.15;17.60;;;;;;;;;;5069670;28;20403;-73
2023/12/06 06:53:39;;;;;;;25.48;16.75;;;6.90;53.80;;;;;;5069997;28;20068;-73
2023/12/06 06:56:05;;;;;;;23.20;15.15;;;6.90;51.60;;;;;;5070093;28;20444;-73
2023/12/06 06:58:31;;;;;;;21.48;14.93;;;;;;;;;;5052935;28;20124;-74
2023/12/06 07:00:57;;;;;;;28.40;15.32;;;7.00;50.30;;;;;;5070056;28;20072;-73
2023/12/06 07:03:25;;;;;;;24.58;16.10;;;;;;;;;;5053284;28;20074;-73
2023/12/06 07:05:51;;;;;;;25.95;16.52;;;;;;;;;;5064146;28;20029;-72
2023/12/06 07:08:17;;;;;;;31.20;17.58;;;;;;;;;;5066127;28;20127;-73
2023/12/06 07:10:47;;;;;;;28.40;17.05;;;;;;;;;;5062616;28;20033;-73
2023/12/06 07:13:13;;;;;;;25.60;16.90;;;;;;;;;;5064461;28;20041;-73
2023/12/06 07:15:39;;;;;;;26.95;16.45;;;;;;;;;;5059692;28;20051;-71
2023/12/06 07:18:05;;;;;;;29.92;17.95;;;;;;;;;;5051618;28;20377;-71
2023/12/06 07:20:31;;;;;;;30.30;17.45;;;;;;;;;;5049712;28;20039;-72
2023/12/06 07:23:00;;;;;;;26.80;17.13;;;;;;;;;;5066148;28;20032;-74
2023/12/06 07:25:26;;;;;;;24.85;16.23;;;;;;;;;;5057178;28;20437;-75
2023/12/06 07:27:52;;;;;;;25.27;16.83;;;;;;;;;;5047565;28;20045;-75
2023/12/06 07:30:18;;;;;;;25.40;16.45;;;;;;;;;;5049376;28;20542;-73
2023/12/06 07:32:44;;;;;;;26.00;16.38;;;;;;;;;;5066532;28;20052;-72
2023/12/06 07:35:10;;;;;;;28.55;17.85;;;;;;;;;;5065662;28;20089;-72
2023/12/06 07:37:36;;;;;;;25.80;17.13;;;;;;;;;;5060618;28;20040;-74
2023/12/06 07:40:03;;;;;;;22.67;15.15;;;;;;;;;;5035578;28;20578;-73
2023/12/06 07:42:29;;;;;;;21.98;16.08;;;7.30;42.00;;;;;;5049728;28;20048;-73
2023/12/06 07:45:00;;;;;;;32.22;18.88;;;;;;;;;;5049461;28;20497;-74
2023/12/06 07:47:26;;;;;;;28.75;17.30;;;;;;;;;;5032683;28;20041;-74
2023/12/06 07:49:52;;;;;;;29.45;18.10;;;;;;;;;;5032887;28;20041;-76
2023/12/06 07:52:18;;;;;;;26.30;16.33;;;;;;;;;;5049975;28;20183;-76
2023/12/06 07:54:46;;;;;;;28.15;17.90;;;7.20;44.20;;;;;;5032896;28;20037;-75
2023/12/06 07:57:13;;;;;;;25.95;16.33;;;;;;;;;;5049470;28;20091;-77
2023/12/06 07:59:39;;;;;;;26.83;16.60;;;;;;;;;;5032702;28;20044;-73
2023/12/06 08:02:06;;;;;;;27.20;17.60;;;;;;;;;;5057341;28;20138;-73
2023/12/06 08:04:32;;;;;;;26.38;17.13;;;;;;;;;;5064146;28;20087;-73
2023/12/06 08:06:58;;;;;;;25.45;18.30;;;7.20;45.00;;;;;;5067266;28;20066;-73
2023/12/06 08:09:27;;;;;;;26.50;17.42;;;;;;;;;;5072543;28;20032;-73
2023/12/06 08:11:53;;;;;;;27.38;17.67;;;;;;;;;;5073183;28;20071;-73
2023/12/06 08:14:19;;;;;;;23.35;16.63;;;;;;;;;;5072442;28;20507;-73
2023/12/06 08:16:46;;;;;;;26.60;16.98;;;;;;;;;;5072967;28;20040;-72
2023/12/06 08:19:12;;;;;;;23.42;16.10;;;;;;;;;;5072662;28;20044;-70
2023/12/06 08:21:38;;;;;;;24.35;15.75;;;;;;;;;;5056022;28;20039;-72
2023/12/06 08:24:05;;;;;;;26.88;16.77;;;;;;;;;;5072547;28;20036;-73
2023/12/06 08:26:32;;;;;;;27.55;18.05;;;7.50;42.30;;;;;;5072947;28;20074;-73
2023/12/06 08:28:58;;;;;;;23.73;16.33;;;7.30;46.20;;;;;;5055628;28;20469;-73
2023/12/06 08:31:23;;;;;;;23.20;16.55;;;7.30;46.50;;;;;;5072721;28;20123;-73
2023/12/06 08:33:49;;;;;;;22.95;16.27;;;;;;;;;;5055502;28;20562;-73
2023/12/06 08:36:15;;;;;;;29.15;15.75;;;;;;;;;;5072441;28;20047;-73
2023/12/06 08:38:43;;;;;;;26.25;16.17;;;;;;;;;;5072169;28;20500;-73
2023/12/06 08:41:09;;;;;;;26.85;16.98;;;;;;;;;;5055533;28;20040;-73
2023/12/06 08:43:37;;;;;;;25.85;17.70;;;;;;;;;;5055573;28;20044;-75
2023/12/06 08:46:02;;;;;;;29.67;17.50;;;7.30;43.60;;;;;;5072212;28;20055;-74
2023/12/06 08:48:29;;;;;;;27.30;16.50;;;;;;;;;;5046618;28;20033;-73
2023/12/06 08:50:55;;;;;;;25.70;17.48;;;;;;;;;;5061679;28;20044;-73
2023/12/06 08:53:21;;;;;;;27.70;17.85;;;;;;;;;;5054868;28;20411;-74
2023/12/06 08:55:47;;;;;;;26.52;16.25;;;;;;;;;;5055023;28;20050;-74
2023/12/06 08:58:14;;;;;;;27.70;18.00;;;;;;;;;;5055219;28;20036;-74
2023/12/06 09:00:39;;;;;;;27.75;17.02;;;;;;;;;;5071731;28;20496;-74
2023/12/06 09:03:05;;;;;;;22.33;15.98;;;7.50;41.50;;;;;;5071877;28;20043;-74
2023/12/06 09:05:31;;;;;;;29.13;16.77;;;7.40;40.50;;;;;;5071994;28;20044;-74
2023/12/06 09:07:57;;;;;;;25.77;17.58;;;;;;;;;;5057426;28;20049;-74
2023/12/06 09:10:24;;;;;;;27.58;16.92;;;;;;;;;;5051781;28;20045;-74
2023/12/06 09:12:50;;;;;;;26.60;17.05;;;;;;;;;;5051293;28;20524;-73
2023/12/06 09:15:16;;;;;;;22.77;16.35;;;7.50;40.30;;;;;;5041450;22;1063541;-69
2023/12/06 09:17:42;;;;;;;28.55;16.13;;;7.50;40.30;;;;;;5072432;28;20083;-71
2023/12/06 09:20:09;;;;;;;26.45;15.50;;;7.40;39.30;;;;;;5072266;28;20067;-70
2023/12/06 09:22:36;;;;;;;28.52;16.65;;;;;;;;;;5072320;28;20045;-71
2023/12/06 09:25:04;;;;;;;26.17;15.27;;;7.50;36.50;;;;;;5072222;28;20044;-71
2023/12/06 09:27:33;;;;;;;23.15;15.15;;;;;;;;;;5071959;28;20045;-71
2023/12/06 09:29:59;;;;;;;23.25;14.70;;;;;;;;;;5063676;28;20515;-71
2023/12/06 09:32:25;;;;;;;23.63;14.20;;;;;;;;;;5071654;28;20033;-71
2023/12/06 09:34:52;;;;;;;22.00;15.07;;;;;;;;;;5054658;28;20133;-70
2023/12/06 09:37:18;;;;;;;22.10;14.68;;;;;;;;;;5071847;28;20044;-72
2023/12/06 09:39:44;;;;;;;19.20;14.80;;;;;;;;;;5070897;28;20128;-72
2023/12/06 09:42:13;;;;;;;22.38;14.95;;;7.50;30.50;;;;;;5071196;28;20072;-69
2023/12/06 09:44:41;;;;;;;27.27;16.10;;;7.70;33.90;;;;;;5054137;28;20037;-69
2023/12/06 09:47:07;;;;;;;23.52;16.02;;;;;;;;;;5071975;28;20044;-69
2023/12/06 09:49:33;;;;;;;28.67;15.90;;;;;;;;;;5070686;28;20124;-69
2023/12/06 09:52:08;;;;;;;26.20;14.32;;;7.90;31.00;;;;;;5072550;28;20115;-68
2023/12/06 09:54:38;;;;;;;22.65;14.15;;;;;;;;;;5070939;28;20472;-69
2023/12/06 09:57:04;;;;;;;24.15;14.52;;;;;;;;;;5070779;28;20042;-66
2023/12/06 09:59:30;;;;;;;24.17;15.48;;;7.80;33.40;;;;;;5070451;28;20039;-68
2023/12/06 10:01:55;;;;;;;23.33;14.77;;;7.80;33.00;;;;;;5053975;28;20115;-68
2023/12/06 10:04:21;;;;;;;26.67;15.73;;;;;;;;;;5070897;28;20110;-69
2023/12/06 10:06:49;;;;;;;29.50;16.23;;;;;;;;;;5070652;28;20050;-68
2023/12/06 10:09:16;;;;;;;25.35;15.25;;;;;;;;;;5070237;28;20105;-69
2023/12/06 10:11:41;;;;;;;22.17;15.10;;;8.00;30.90;;;;;;5053602;28;20532;-69
2023/12/06 10:14:16;;;;;;;21.40;14.32;;;;;;;;;;5053224;28;20044;-68
2023/12/06 10:16:42;;;;;;;22.52;13.60;;;;;;;;;;5070221;28;20139;-69
2023/12/06 10:19:08;;;;;;;20.30;13.93;;;8.00;29.20;;;;;;5069803;28;20094;-69
2023/12/06 10:21:34;;;;;;;24.23;14.85;;;;;;;;;;5053450;28;20033;-69
2023/12/06 10:24:01;;;;;;;25.33;14.88;;;;;;;;;;5053235;28;20041;-69
2023/12/06 10:26:30;;;;;;;21.05;13.15;;;8.00;28.00;;;;;;5069219;28;20079;-68
2023/12/06 10:28:56;;;;;;;21.83;13.85;;;;;;;;;;5071019;28;20083;-68
2023/12/06 10:31:22;;;;;;;20.05;14.20;;;;;;;;;;5070357;28;20550;-68
2023/12/06 10:33:56;;;;;;;28.70;14.32;;;7.90;26.90;;;;;;5069948;28;20498;-70
2023/12/06 10:36:27;;;;;;;20.08;13.07;;;8.10;26.60;;;;;;5053038;28;20036;-69
2023/12/06 10:38:54;;;;;;;24.27;12.52;;;;;;;;;;5051079;28;20039;-70
2023/12/06 10:41:21;;;;;;;21.17;11.50;;;;;;;;;;5053173;28;20032;-70
2023/12/06 10:43:48;;;;;;;16.95;11.05;;;;;;;;;;5052873;28;20094;-70
2023/12/06 10:46:14;;;;;;;15.98;10.75;;;8.10;26.40;;;;;;5069791;28;20044;-70
2023/12/06 10:48:40;;;;;;;18.73;11.02;;;;;;;;;;5069744;28;20044;-70
2023/12/06 10:51:07;;;;;;;20.67;12.68;;;;;;;;;;5053550;28;20511;-70
2023/12/06 10:53:33;;;;;;;15.73;11.10;;;;;;;;;;5069858;28;20040;-69
2023/12/06 10:56:01;;;;;;;22.15;11.55;;;;;;;;;;5053106;28;20041;-70
2023/12/06 10:58:27;;;;;;;21.92;10.70;;;8.00;24.80;;;;;;5069751;28;20046;-68
2023/12/06 11:00:54;;;;;;;15.77;10.80;;;;;;;;;;5069569;28;20032;-70
2023/12/06 11:03:20;;;;;;;14.57;10.45;;;;;;;;;;5069989;28;20566;-70
2023/12/06 11:05:55;;;;;;;20.38;11.18;;;8.20;23.30;;;;;;5052808;28;20496;-70
2023/12/06 11:08:46;;;;;;;18.30;11.00;;;7.90;22.30;;;;;;5051585;28;20115;-68
2023/12/06 11:11:30;;;;;;;15.07;9.90;;;8.00;23.90;;;;;;5069288;28;20091;-70
2023/12/06 11:14:12;;;;;;;14.43;9.82;;;8.00;24.20;;;;;;5069533;28;20067;-69
2023/12/06 11:17:04;;;;;;;14.80;11.25;;;8.00;23.30;;;;;;5052538;28;20492;-70
2023/12/06 11:19:30;;;;;;;14.52;9.85;;;;;;;;;;5067526;28;20038;-70
2023/12/06 11:21:56;;;;;;;14.48;10.32;;;;;;;;;;5069565;28;20082;-69
2023/12/06 11:24:22;;;;;;;19.15;10.10;;;;;;;;;;5069525;28;20080;-70
2023/12/06 11:26:48;;;;;;;17.45;10.48;;;;;;;;;;5069700;28;20133;-69
2023/12/06 11:29:14;;;;;;;16.15;10.77;;;;;;;;;;5069189;28;20123;-71
2023/12/06 11:31:40;;;;;;;19.60;12.40;;;;;;;;;;5050886;28;20109;-70
2023/12/06 11:34:09;;;;;;;16.15;10.57;;;8.10;29.10;;;;;;5065835;28;20045;-68
2023/12/06 11:36:37;;;;;;;17.77;11.25;;;;;;;;;;5050240;28;20032;-70
2023/12/06 11:39:16;;;;;;;17.08;11.40;;;;;;;;;;5068795;28;20067;-69
2023/12/06 11:41:53;;;;;;;21.20;12.13;;;8.10;31.10;;;;;;5044639;28;20448;-69
2023/12/06 11:44:19;;;;;;;16.60;11.10;;;;;;;;;;5045183;28;20041;-69
2023/12/06 11:46:53;;;;;;;15.77;11.20;;;;;;;;;;5069722;28;20055;-69
2023/12/06 11:49:36;;;;;;;19.33;10.93;;;8.50;31.50;;;;;;5058026;28;20504;-70
2023/12/06 11:52:02;;;;;;;;;;;;;;;;;;5071464;28;20598;-70
2023/12/06 11:54:29;;;;;;;19.15;12.20;;;;;;;;;;5069290;28;19926;-70
2023/12/06 11:57:08;;;;;;;18.42;11.43;;;;;;;;;;5053569;28;20127;-70
2023/12/06 11:59:34;;;;;;;17.88;12.55;;;;;;;;;;5052476;28;20048;-70
2023/12/06 12:02:00;;;;;;;15.68;10.98;;;;;;;;;;5062236;28;20037;-70
2023/12/06 12:04:27;;;;;;;16.42;10.05;;;;;;;;;;5070879;28;20047;-67
2023/12/06 12:06:53;;;;;;;14.68;9.90;;;;;;;;;;5069381;28;20052;-69
2023/12/06 12:09:21;;;;;;;14.30;9.40;;;;;;;;;;5066664;28;20075;-70
2023/12/06 12:11:47;;;;;;;15.50;9.95;;;;;;;;;;5069434;28;20094;-69
2023/12/06 12:14:12;;;;;;;17.23;9.68;;;8.30;33.30;;;;;;5062410;28;20040;-70
2023/12/06 12:16:42;;;;;;;13.93;9.35;;;;;;;;;;5053993;28;20099;-69
2023/12/06 12:19:08;;;;;;;14.60;9.30;;;;;;;;;;5052359;28;20072;-70
2023/12/06 12:21:34;;;;;;;15.07;8.88;;;;;;;;;;5053874;28;20090;-71
2023/12/06 12:24:02;;;;;;;17.05;9.10;;;;;;;;;;5059621;28;20040;-70
2023/12/06 12:26:29;;;;;;;19.45;9.07;;;8.30;28.70;;;;;;5056053;28;20040;-70
2023/12/06 12:28:55;;;;;;;13.68;8.85;;;;;;;;;;5072116;28;20040;-70
2023/12/06 12:31:25;;;;;;;13.93;8.55;;;8.50;27.60;;;;;;5073507;28;20045;-70
2023/12/06 12:33:51;;;;;;;12.90;8.50;;;8.30;26.20;;;;;;5055363;28;20484;-70
2023/12/06 12:36:17;;;;;;;14.32;8.32;;;8.30;26.40;;;;;;5073284;28;20111;-70
2023/12/06 12:38:44;;;;;;;10.20;7.55;;;;;;;;;;5072880;28;20044;-71
2023/12/06 12:41:10;;;;;;;12.52;8.23;;;;;;;;;;5073252;28;20048;-70
2023/12/06 12:43:36;;;;;;;9.98;8.45;;;;;;;;;;5071847;28;20040;-70
2023/12/06 12:46:03;;;;;;;12.85;9.13;;;;;;;;;;5071192;28;20041;-70
2023/12/06 12:48:33;;;;;;;11.02;8.75;;;8.40;24.50;;;;;;5066730;28;20310;-69
2023/12/06 12:51:12;;;;;;;16.30;8.48;;;8.30;25.30;;;;;;5071580;28;20028;-70
2023/12/06 12:53:45;;;;;;;13.25;9.15;;;8.40;27.20;;;;;;5071558;28;20052;-70
2023/12/06 12:56:14;;;;;;;17.50;9.70;;;8.40;24.20;;;;;;5072260;28;20036;-71
2023/12/06 12:58:42;;;;;;;24.02;16.02;;;8.50;27.40;;;;;;5072764;28;20040;-70
2023/12/06 13:01:08;;;;;;;19.02;14.63;;;8.40;25.20;;;;;;5071667;28;20037;-69
2023/12/06 13:03:34;;;;;;;31.67;20.50;;;;;;;;;;5055084;28;20093;-70
2023/12/06 13:06:01;;;;;;;15.73;11.40;;;;;;;;;;5071507;28;20123;-69
2023/12/06 13:08:28;;;;;;;18.55;11.75;;;;;;;;;;5069470;28;20036;-68
2023/12/06 13:10:54;;;;;;;14.88;11.43;;;8.50;24.30;;;;;;5071560;28;20044;-70
2023/12/06 13:13:20;;;;;;;13.60;10.43;;;;;;;;;;5071652;28;20035;-70
2023/12/06 13:15:46;;;;;;;11.43;8.32;;;;;;;;;;5071497;28;20152;-70
2023/12/06 13:18:12;;;;;;;15.07;9.23;;;;;;;;;;5071781;28;20070;-69
2023/12/06 13:20:38;;;;;;;12.73;8.80;;;;;;;;;;5071315;28;20043;-69
2023/12/06 13:23:04;;;;;;;11.73;8.60;;;8.40;25.40;;;;;;5071290;28;20041;-69
2023/12/06 13:25:30;;;;;;;12.63;9.38;;;8.50;25.80;;;;;;5071435;28;20054;-69
2023/12/06 13:27:55;;;;;;;15.00;9.45;;;8.50;26.20;;;;;;5071684;28;20123;-69
2023/12/06 13:30:21;;;;;;;13.25;9.32;;;8.40;25.20;;;;;;5070986;28;20606;-70
2023/12/06 13:32:47;;;;;;;11.98;8.30;;;;;;;;;;5070480;28;20090;-69
2023/12/06 13:35:13;;;;;;;13.07;9.20;;;;;;;;;;5070529;28;20044;-69
2023/12/06 13:37:39;;;;;;;11.43;8.90;;;;;;;;;;5070886;28;20124;-69
2023/12/06 13:40:05;;;;;;;13.88;9.05;;;;;;;;;;5053642;28;20108;-68
2023/12/06 13:42:32;;;;;;;13.95;9.35;;;;;;;;;;5054038;28;20044;-70
2023/12/06 13:44:58;;;;;;;11.65;9.02;;;;;;;;;;5052959;28;20064;-70
2023/12/06 13:47:24;;;;;;;14.80;9.52;;;;;;;;;;5070795;28;20072;-70